Airport Name : Saskatoon J G Diefenbaker Intl

Other Name : Saskatoon

ICAO : CYXE

IATA : YXE

FAA :

Latitude : 52.170834

Longitude : -106.699722

Country : Canada

Local Date and Time : 25 Jun 2024 00:07

 

TAF (Terminal Aerodrome Forecast)

TAF CYXE 250540Z 2506/2606 29012G22KT P6SM SCT060 BKN120 TEMPO 2506/2509 BKN060 OVC120 FM250900 28015G25KT P6SM SCT015 BKN030 OVC060 TEMPO 2509/2512 5SM -SHRA BKN015 OVC030 FM251200 30015G25KT P6SM -RA SCT012 OVC025 TEMPO 2512/2524 5SM -SHRA BR SCT006 BKN012 OVC025 PROB30 2521/2524 2SM TSRA BKN006 OVC025CB FM260000 01012G22KT P6SM BKN030 FM260300 36007KT P6SM SCT030 RMK NXT FCST BY 251200Z

 

METAR (METeorological Aerodrome Report)